createdAt,value
2023-04-15T00:00:55.037Z,25.00
2023-04-15T00:01:55.162Z,25.00
2023-04-15T00:02:55.179Z,25.00
2023-04-15T00:03:55.086Z,25.00
2023-04-15T00:04:55.099Z,23.39
2023-04-15T00:05:55.046Z,25.00
2023-04-15T00:06:55.190Z,25.00
2023-04-15T00:07:55.004Z,25.00
2023-04-15T00:08:54.998Z,28.19
2023-04-15T00:09:55.010Z,26.16
2023-04-15T00:10:55.008Z,27.10
2023-04-15T00:11:54.991Z,26.26
2023-04-15T00:12:54.968Z,25.37
2023-04-15T00:13:54.973Z,26.89
2023-04-15T00:14:54.956Z,26.55
2023-04-15T00:15:54.945Z,27.08
2023-04-15T00:16:54.979Z,25.00
2023-04-15T00:17:54.973Z,26.39
2023-04-15T00:18:54.934Z,27.53
2023-04-15T00:19:55.792Z,29.22
2023-04-15T00:20:54.930Z,26.95
2023-04-15T00:21:54.917Z,24.71
2023-04-15T00:22:54.962Z,28.87
2023-04-15T00:23:54.926Z,27.51
2023-04-15T00:24:54.922Z,25.47
2023-04-15T00:25:54.905Z,27.94
2023-04-15T00:26:54.925Z,27.00
2023-04-15T00:27:54.902Z,25.07
2023-04-15T00:28:54.902Z,25.84
2023-04-15T00:29:54.908Z,25.19
2023-04-15T00:30:54.958Z,26.51
2023-04-15T00:31:54.894Z,28.96
2023-04-15T00:32:54.916Z,28.05
2023-04-15T00:33:54.909Z,25.00
2023-04-15T00:34:54.945Z,26.30
2023-04-15T00:35:54.989Z,26.96
2023-04-15T00:36:55.683Z,28.70
2023-04-15T00:37:55.064Z,25.00
2023-04-15T00:38:55.128Z,25.48
2023-04-15T00:39:55.155Z,25.46
2023-04-15T00:40:55.205Z,26.96
2023-04-15T00:41:55.242Z,26.20
2023-04-15T00:42:55.318Z,25.88
2023-04-15T00:43:55.322Z,27.93
2023-04-15T00:44:55.372Z,29.15
2023-04-15T00:45:55.435Z,27.87
2023-04-15T00:46:55.441Z,30.33
2023-04-15T00:47:55.555Z,30.79
2023-04-15T00:48:55.528Z,29.48
2023-04-15T00:49:55.583Z,29.57
2023-04-15T00:50:55.633Z,29.07
2023-04-15T00:51:55.657Z,27.41
2023-04-15T00:52:55.703Z,25.00
2023-04-15T00:53:55.746Z,27.54
2023-04-15T00:54:55.802Z,31.16
2023-04-15T00:55:55.848Z,29.64
2023-04-15T00:56:55.897Z,27.83
2023-04-15T00:57:55.948Z,30.49
2023-04-15T00:58:56.016Z,26.68
2023-04-15T00:59:56.036Z,30.07
2023-04-15T01:00:56.077Z,31.64
2023-04-15T01:01:56.210Z,30.68
2023-04-15T01:02:56.279Z,30.34
2023-04-15T01:03:56.376Z,31.61
2023-04-15T01:04:56.241Z,30.49
2023-04-15T01:05:56.262Z,32.77
2023-04-15T01:06:56.321Z,30.34
2023-04-15T01:07:56.357Z,29.73
2023-04-15T01:08:56.392Z,31.40
2023-04-15T01:09:56.434Z,29.98
2023-04-15T01:10:56.480Z,34.15
2023-04-15T01:11:56.540Z,31.40
2023-04-15T01:12:56.559Z,29.26
2023-04-15T01:13:56.614Z,30.42
2023-04-15T01:14:56.692Z,28.89
2023-04-15T01:15:56.725Z,30.20
2023-04-15T01:16:56.753Z,29.83
2023-04-15T01:17:56.848Z,27.71
2023-04-15T01:18:56.828Z,28.37
2023-04-15T01:19:56.874Z,29.56
2023-04-15T01:20:56.914Z,29.45
2023-04-15T01:21:56.959Z,28.70
2023-04-15T01:22:57.002Z,29.79
2023-04-15T01:23:57.055Z,27.99
2023-04-15T01:24:57.109Z,30.56
2023-04-15T01:25:57.140Z,31.74
2023-04-15T01:26:57.181Z,28.30
2023-04-15T01:27:57.206Z,31.35
2023-04-15T01:28:57.280Z,29.67
2023-04-15T01:29:57.302Z,30.85
2023-04-15T01:30:57.374Z,29.31
2023-04-15T01:31:57.391Z,27.36
2023-04-15T01:32:58.203Z,30.01
2023-04-15T01:33:57.463Z,31.67
2023-04-15T01:34:57.507Z,29.34
2023-04-15T01:35:57.550Z,26.63
2023-04-15T01:36:57.588Z,28.21
2023-04-15T01:37:57.637Z,27.97
2023-04-15T01:38:57.846Z,29.39
2023-04-15T01:39:57.716Z,30.84
2023-04-15T01:40:57.763Z,31.07
2023-04-15T01:41:57.802Z,27.34
2023-04-15T01:42:57.842Z,27.92
2023-04-15T01:43:57.880Z,30.52
2023-04-15T01:44:57.920Z,29.42
2023-04-15T01:45:57.955Z,28.27
2023-04-15T01:46:58.053Z,30.20
2023-04-15T01:47:58.042Z,29.66
2023-04-15T01:48:58.276Z,30.95
2023-04-15T01:49:58.100Z,34.35
2023-04-15T01:50:58.131Z,30.86
2023-04-15T01:51:58.180Z,28.34
2023-04-15T01:52:58.216Z,31.79
2023-04-15T01:53:58.260Z,27.98
2023-04-15T01:54:58.307Z,27.97
2023-04-15T01:55:58.351Z,29.50
2023-04-15T01:56:58.396Z,29.73
2023-04-15T01:57:58.441Z,28.72
2023-04-15T01:58:58.857Z,33.61
2023-04-15T01:59:58.543Z,29.43
2023-04-15T02:00:58.599Z,31.13
2023-04-15T02:01:58.734Z,29.19
2023-04-15T02:02:58.729Z,28.74
2023-04-15T02:03:58.774Z,29.65
2023-04-15T02:04:58.718Z,32.20
2023-04-15T02:05:58.773Z,29.60
2023-04-15T02:06:58.801Z,28.38
2023-04-15T02:07:58.838Z,29.00
2023-04-15T02:08:59.101Z,27.53
2023-04-15T02:09:58.917Z,30.71
2023-04-15T02:10:58.956Z,31.32
2023-04-15T02:11:58.994Z,29.97
2023-04-15T02:12:59.027Z,31.55
2023-04-15T02:13:59.064Z,31.19
2023-04-15T02:14:59.109Z,29.97
2023-04-15T02:15:59.148Z,28.01
2023-04-15T02:16:59.302Z,30.52
2023-04-15T02:17:59.286Z,28.35
2023-04-15T02:18:59.446Z,27.91
2023-04-15T02:19:59.303Z,32.54
2023-04-15T02:20:59.343Z,30.26
2023-04-15T02:21:59.381Z,32.19
2023-04-15T02:22:59.407Z,31.22
2023-04-15T02:23:59.456Z,31.01
2023-04-15T02:24:59.490Z,29.86
2023-04-15T02:25:59.523Z,30.13
2023-04-15T02:26:59.568Z,29.81
2023-04-15T02:27:59.610Z,31.01
2023-04-15T02:28:59.913Z,32.76
2023-04-15T02:29:59.688Z,31.59
2023-04-15T02:30:59.769Z,31.91
2023-04-15T02:31:59.782Z,32.14
2023-04-15T02:32:59.826Z,32.86
2023-04-15T02:33:59.857Z,29.91
2023-04-15T02:34:59.919Z,28.26
2023-04-15T02:35:59.938Z,30.73
2023-04-15T02:36:59.981Z,32.25
2023-04-15T02:38:00.013Z,29.50
2023-04-15T02:39:00.291Z,29.17
2023-04-15T02:40:00.158Z,33.06
2023-04-15T02:41:00.156Z,32.10
2023-04-15T02:42:00.196Z,30.88
2023-04-15T02:43:00.239Z,30.69
2023-04-15T02:44:00.299Z,28.01
2023-04-15T02:45:00.345Z,28.72
2023-04-15T02:46:00.411Z,31.89
2023-04-15T02:47:00.433Z,27.77
2023-04-15T02:48:00.482Z,28.74
2023-04-15T02:49:00.792Z,28.09
2023-04-15T02:50:00.569Z,26.93
2023-04-15T02:51:00.633Z,30.07
2023-04-15T02:52:00.648Z,28.69
2023-04-15T02:53:00.738Z,31.16
2023-04-15T02:54:00.741Z,28.21
2023-04-15T02:55:00.786Z,29.34
2023-04-15T02:56:00.834Z,31.33
2023-04-15T02:57:00.874Z,30.11
2023-04-15T02:58:00.924Z,29.63
2023-04-15T02:59:01.248Z,32.46
2023-04-15T03:00:01.015Z,32.05
2023-04-15T03:01:01.090Z,31.56
2023-04-15T03:02:01.212Z,30.97
2023-04-15T03:03:01.287Z,31.55
2023-04-15T03:04:01.296Z,30.77
2023-04-15T03:05:01.233Z,30.88
2023-04-15T03:06:01.281Z,28.38
2023-04-15T03:07:01.356Z,30.66
2023-04-15T03:08:01.507Z,31.35
2023-04-15T03:09:01.736Z,31.34
2023-04-15T03:10:01.465Z,30.97
2023-04-15T03:11:01.512Z,28.98
2023-04-15T03:12:01.577Z,31.10
2023-04-15T03:13:01.640Z,29.29
2023-04-15T03:14:01.646Z,32.31
2023-04-15T03:15:01.689Z,30.59
2023-04-15T03:16:01.779Z,29.75
2023-04-15T03:17:01.797Z,29.41
2023-04-15T03:18:02.684Z,30.03
2023-04-15T03:19:02.060Z,33.58
2023-04-15T03:20:01.932Z,29.65
2023-04-15T03:21:01.955Z,30.45
2023-04-15T03:22:02.011Z,31.91
2023-04-15T03:23:02.063Z,29.72
2023-04-15T03:24:02.097Z,29.21
2023-04-15T03:25:02.169Z,31.96
2023-04-15T03:26:02.200Z,29.95
2023-04-15T03:27:02.236Z,30.03
2023-04-15T03:28:02.235Z,29.70
2023-04-15T03:29:02.445Z,27.13
2023-04-15T03:30:02.312Z,29.85
2023-04-15T03:31:02.395Z,29.71
2023-04-15T03:32:02.366Z,27.63
2023-04-15T03:33:02.514Z,27.04
2023-04-15T03:34:02.397Z,27.74
2023-04-15T03:35:02.424Z,26.41
2023-04-15T03:36:02.418Z,25.00
2023-04-15T03:37:02.418Z,29.49
2023-04-15T03:38:01.445Z,27.85
2023-04-15T03:39:02.644Z,28.31
2023-04-15T03:40:02.406Z,28.83
2023-04-15T03:41:02.397Z,29.92
2023-04-15T03:42:02.397Z,26.10
2023-04-15T03:43:02.396Z,29.38
2023-04-15T03:44:02.384Z,26.18
2023-04-15T03:45:02.378Z,28.57
2023-04-15T03:46:02.369Z,29.61
2023-04-15T03:47:02.356Z,29.03
2023-04-15T03:49:02.319Z,34.72
2023-04-15T03:50:02.377Z,29.82
2023-04-15T03:51:02.335Z,25.00
2023-04-15T03:52:02.335Z,28.78
2023-04-15T03:53:02.318Z,27.55
2023-04-15T03:54:02.311Z,30.01
2023-04-15T03:55:02.338Z,27.75
2023-04-15T03:56:02.299Z,31.00
2023-04-15T03:57:02.314Z,34.62
2023-04-15T03:58:02.383Z,33.69
2023-04-15T03:59:02.523Z,31.35
2023-04-15T04:00:02.256Z,31.60
2023-04-15T04:01:02.283Z,31.20
2023-04-15T04:02:02.361Z,32.92
2023-04-15T04:03:02.409Z,25.43
2023-04-15T04:04:02.372Z,29.09
2023-04-15T04:05:02.211Z,33.03
2023-04-15T04:06:02.227Z,33.75
2023-04-15T04:07:02.196Z,30.98
2023-04-15T04:08:02.191Z,30.95
2023-04-15T04:09:02.429Z,33.15
2023-04-15T04:10:02.176Z,31.53
2023-04-15T04:11:02.194Z,27.79
2023-04-15T04:12:02.162Z,32.61
2023-04-15T04:13:02.143Z,32.33
2023-04-15T04:14:02.183Z,31.23
2023-04-15T04:15:02.122Z,32.91
2023-04-15T04:16:02.207Z,31.52
2023-04-15T04:17:02.156Z,31.52
2023-04-15T04:18:02.222Z,30.82
2023-04-15T04:19:02.436Z,28.72
2023-04-15T04:20:02.061Z,30.22
2023-04-15T04:21:02.104Z,27.53
2023-04-15T04:22:02.040Z,31.42
2023-04-15T04:23:02.015Z,30.03
2023-04-15T04:24:02.072Z,27.29
2023-04-15T04:25:02.113Z,31.45
2023-04-15T04:26:02.147Z,29.09
2023-04-15T04:27:02.244Z,29.41
2023-04-15T04:28:02.235Z,30.42
2023-04-15T04:29:02.389Z,29.75
2023-04-15T04:30:02.345Z,26.18
2023-04-15T04:31:02.408Z,30.50
2023-04-15T04:32:02.457Z,29.99
2023-04-15T04:33:02.536Z,29.98
2023-04-15T04:34:02.457Z,27.41
2023-04-15T04:35:02.512Z,28.43
2023-04-15T04:36:02.610Z,25.00
2023-04-15T04:37:02.588Z,28.91
2023-04-15T04:38:02.610Z,30.84
2023-04-15T04:39:03.806Z,30.48
2023-04-15T04:40:02.680Z,31.01
2023-04-15T04:41:02.733Z,30.90
2023-04-15T04:42:02.773Z,31.24
2023-04-15T04:43:02.843Z,29.53
2023-04-15T04:44:02.893Z,30.31
2023-04-15T04:45:02.921Z,31.06
2023-04-15T04:46:03.021Z,27.98
2023-04-15T04:47:03.035Z,27.10
2023-04-15T04:48:03.131Z,27.66
2023-04-15T04:49:03.242Z,27.08
2023-04-15T04:50:03.156Z,29.73
2023-04-15T04:51:03.212Z,29.36
2023-04-15T04:52:03.258Z,32.33
2023-04-15T04:53:03.299Z,31.22
2023-04-15T04:54:03.907Z,32.57
2023-04-15T04:55:03.421Z,30.05
2023-04-15T04:56:03.462Z,29.06
2023-04-15T04:57:03.516Z,29.13
2023-04-15T04:58:03.584Z,29.20
2023-04-15T04:59:03.724Z,31.23
2023-04-15T05:00:03.719Z,28.15
2023-04-15T05:01:03.780Z,31.75
2023-04-15T05:02:03.844Z,31.87
2023-04-15T05:03:03.927Z,29.58
2023-04-15T05:04:03.996Z,30.35
2023-04-15T05:05:03.939Z,28.09
2023-04-15T05:06:03.989Z,31.09
2023-04-15T05:07:04.033Z,31.47
2023-04-15T05:08:04.078Z,29.55
2023-04-15T05:09:04.115Z,28.04
2023-04-15T05:10:04.169Z,25.00
2023-04-15T05:11:04.221Z,26.49
2023-04-15T05:12:04.253Z,25.36
2023-04-15T05:13:04.319Z,26.81
2023-04-15T05:14:04.360Z,27.57
2023-04-15T05:15:04.406Z,26.40
2023-04-15T05:16:04.501Z,27.36
2023-04-15T05:17:04.486Z,30.09
2023-04-15T05:18:04.551Z,29.73
2023-04-15T05:19:04.550Z,29.72
2023-04-15T05:20:04.591Z,32.70
2023-04-15T05:21:04.616Z,34.23
2023-04-15T05:22:04.632Z,34.11
2023-04-15T05:23:04.671Z,32.91
2023-04-15T05:24:04.683Z,33.04
2023-04-15T05:25:04.713Z,31.55
2023-04-15T05:26:04.740Z,32.90
2023-04-15T05:27:04.761Z,31.85
2023-04-15T05:28:04.791Z,33.85
2023-04-15T05:29:04.816Z,31.18
2023-04-15T05:30:04.840Z,31.14
2023-04-15T05:31:04.915Z,29.88
2023-04-15T05:32:04.897Z,30.34
2023-04-15T05:33:04.941Z,26.36
2023-04-15T05:34:04.932Z,28.63
2023-04-15T05:35:04.955Z,28.41
2023-04-15T05:36:04.984Z,28.88
2023-04-15T05:37:04.999Z,29.83
2023-04-15T05:38:05.029Z,26.79
2023-04-15T05:39:05.046Z,28.40
2023-04-15T05:40:05.065Z,26.68
2023-04-15T05:41:05.110Z,25.00
2023-04-15T05:42:05.108Z,27.57
2023-04-15T05:43:05.133Z,29.53
2023-04-15T05:44:05.172Z,25.63
2023-04-15T05:45:05.173Z,29.83
2023-04-15T05:46:05.203Z,27.55
2023-04-15T05:47:05.226Z,26.92
2023-04-15T05:48:05.227Z,27.72
2023-04-15T05:49:05.240Z,27.04
2023-04-15T05:50:05.258Z,29.46
2023-04-15T05:51:05.291Z,27.32
2023-04-15T05:52:05.318Z,29.94
2023-04-15T05:53:05.339Z,28.74
2023-04-15T05:54:05.356Z,27.38
2023-04-15T05:55:05.375Z,25.00
2023-04-15T05:56:05.386Z,27.38
2023-04-15T05:57:05.407Z,27.67
2023-04-15T05:58:05.414Z,31.39
2023-04-15T05:59:05.432Z,28.43
2023-04-15T06:00:05.734Z,27.77
2023-04-15T06:01:05.468Z,31.54
2023-04-15T06:02:05.508Z,29.55
2023-04-15T06:03:05.559Z,26.35
2023-04-15T06:04:05.597Z,26.12
2023-04-15T06:05:05.777Z,28.59
2023-04-15T06:06:05.567Z,26.20
2023-04-15T06:07:05.585Z,27.84
2023-04-15T06:08:05.602Z,25.00
2023-04-15T06:09:05.610Z,27.41
2023-04-15T06:10:05.628Z,27.43
2023-04-15T06:11:05.640Z,27.88
2023-04-15T06:12:05.649Z,25.00
2023-04-15T06:13:05.662Z,26.24
2023-04-15T06:14:05.676Z,27.57
2023-04-15T06:15:06.492Z,27.71
2023-04-15T06:16:05.719Z,25.00
2023-04-15T06:17:05.715Z,27.91
2023-04-15T06:18:06.649Z,25.00
2023-04-15T06:19:05.752Z,25.06
2023-04-15T06:20:05.730Z,25.87
2023-04-15T06:21:06.244Z,30.33
2023-04-15T06:22:05.766Z,25.00
2023-04-15T06:23:05.791Z,25.00
2023-04-15T06:24:05.800Z,26.48
2023-04-15T06:25:05.815Z,25.40
2023-04-15T06:26:05.832Z,29.70
2023-04-15T06:27:05.846Z,29.21
2023-04-15T06:28:05.866Z,25.00
2023-04-15T06:29:05.883Z,28.29
2023-04-15T06:30:05.912Z,28.92
2023-04-15T06:31:05.932Z,29.07
2023-04-15T06:32:05.936Z,28.34
2023-04-15T06:33:05.962Z,28.17
2023-04-15T06:34:05.975Z,29.86
2023-04-15T06:35:06.022Z,29.58
2023-04-15T06:36:06.027Z,34.26
2023-04-15T06:37:06.454Z,37.79
2023-04-15T06:38:06.055Z,37.52
2023-04-15T06:39:06.067Z,36.15
2023-04-15T06:40:06.094Z,37.73
2023-04-15T06:41:06.141Z,37.02
2023-04-15T06:42:06.148Z,36.89
2023-04-15T06:43:06.167Z,29.80
2023-04-15T06:44:06.196Z,35.82
2023-04-15T06:45:06.216Z,33.30
2023-04-15T06:46:06.313Z,28.72
2023-04-15T06:47:06.294Z,27.43
2023-04-15T06:48:06.282Z,30.27
2023-04-15T06:49:06.311Z,28.40
2023-04-15T06:50:06.332Z,34.66
2023-04-15T06:51:06.396Z,25.24
2023-04-15T06:52:06.365Z,25.83
2023-04-15T06:53:06.387Z,25.48
2023-04-15T06:54:06.401Z,27.28
2023-04-15T06:55:06.412Z,25.86
2023-04-15T06:56:06.428Z,23.95
2023-04-15T06:57:06.443Z,25.00
2023-04-15T06:58:06.460Z,25.29
2023-04-15T06:59:06.483Z,27.28
2023-04-15T07:00:06.499Z,27.03
2023-04-15T07:01:06.545Z,25.00
2023-04-15T07:02:06.560Z,26.43
2023-04-15T07:03:06.569Z,25.52
2023-04-15T07:04:06.579Z,29.01
2023-04-15T07:05:06.578Z,27.32
2023-04-15T07:06:06.662Z,26.09
2023-04-15T07:07:06.646Z,26.77
2023-04-15T07:08:06.647Z,27.79
2023-04-15T07:09:06.662Z,31.22
2023-04-15T07:10:06.669Z,28.36
2023-04-15T07:11:06.692Z,26.84
2023-04-15T07:12:06.705Z,25.21
2023-04-15T07:13:06.727Z,30.05
2023-04-15T07:14:06.761Z,32.75
2023-04-15T07:15:06.803Z,25.82
2023-04-15T07:16:06.787Z,30.55
2023-04-15T07:17:06.899Z,28.33
2023-04-15T07:18:06.838Z,26.52
2023-04-15T07:19:06.843Z,25.50
2023-04-15T07:20:06.853Z,28.59
2023-04-15T07:21:06.864Z,25.55
2023-04-15T07:22:06.885Z,27.29
2023-04-15T07:23:06.923Z,26.18
2023-04-15T07:24:06.906Z,30.21
2023-04-15T07:25:06.919Z,26.63
2023-04-15T07:26:06.931Z,29.45
2023-04-15T07:27:06.975Z,30.44
2023-04-15T07:28:06.983Z,32.35
2023-04-15T07:29:06.990Z,28.52
2023-04-15T07:30:07.020Z,25.58
2023-04-15T07:31:07.102Z,30.84
2023-04-15T07:32:07.044Z,25.00
2023-04-15T07:33:07.074Z,29.55
2023-04-15T07:34:07.079Z,25.68
2023-04-15T07:35:07.094Z,33.35
2023-04-15T07:36:07.123Z,25.30
2023-04-15T07:37:07.150Z,25.89
2023-04-15T07:38:07.186Z,32.84
2023-04-15T07:39:07.246Z,25.00
2023-04-15T07:40:07.251Z,29.21
2023-04-15T07:41:07.257Z,29.26
2023-04-15T07:42:07.285Z,27.88
2023-04-15T07:43:07.384Z,27.62
2023-04-15T07:44:07.327Z,31.29
2023-04-15T07:45:07.347Z,31.62
2023-04-15T07:46:07.388Z,25.00
2023-04-15T07:47:07.372Z,26.54
2023-04-15T07:48:07.393Z,31.32
2023-04-15T07:49:07.424Z,25.86
2023-04-15T07:50:07.427Z,27.32
2023-04-15T07:51:07.467Z,25.00
2023-04-15T07:52:07.496Z,26.38
2023-04-15T07:53:07.494Z,26.40
2023-04-15T07:54:07.465Z,25.90
2023-04-15T07:55:07.519Z,29.66
2023-04-15T07:56:07.501Z,41.62
2023-04-15T07:57:07.575Z,32.53
2023-04-15T07:58:07.532Z,33.28
2023-04-15T07:59:07.543Z,33.57
2023-04-15T08:00:07.602Z,37.02
2023-04-15T08:01:07.586Z,28.07
2023-04-15T08:02:07.601Z,25.67
2023-04-15T08:03:07.765Z,28.09
2023-04-15T08:04:07.794Z,32.30
2023-04-15T08:05:07.687Z,25.00
2023-04-15T08:06:07.644Z,33.77
2023-04-15T08:07:07.677Z,30.75
2023-04-15T08:08:07.681Z,30.55
2023-04-15T08:09:07.682Z,27.42
2023-04-15T08:10:07.693Z,33.48
2023-04-15T08:11:07.733Z,36.23
2023-04-15T08:12:07.704Z,40.84
2023-04-15T08:13:07.791Z,39.84
2023-04-15T08:14:07.733Z,43.70
2023-04-15T08:15:07.742Z,46.10
2023-04-15T08:16:07.812Z,42.67
2023-04-15T08:17:07.765Z,40.58
2023-04-15T08:18:07.788Z,31.54
2023-04-15T08:19:07.786Z,36.42
2023-04-15T08:20:07.942Z,32.96
2023-04-15T08:21:07.817Z,35.62
2023-04-15T08:22:10.320Z,32.06
2023-04-15T08:23:07.799Z,31.23
2023-04-15T08:24:07.758Z,25.53
2023-04-15T08:25:07.729Z,22.80
2023-04-15T08:26:07.708Z,32.21
2023-04-15T08:27:07.695Z,28.59
2023-04-15T08:28:07.631Z,25.00
2023-04-15T08:29:07.598Z,27.00
2023-04-15T08:30:07.566Z,26.49
2023-04-15T08:31:07.876Z,25.41
2023-04-15T08:32:07.503Z,25.20
2023-04-15T08:33:07.470Z,33.88
2023-04-15T08:34:07.565Z,39.94
2023-04-15T08:35:07.402Z,44.53
2023-04-15T08:36:08.286Z,38.63
2023-04-15T08:37:08.282Z,36.58
2023-04-15T08:38:07.746Z,42.02
2023-04-15T08:39:07.189Z,40.08
2023-04-15T08:40:07.881Z,38.32
2023-04-15T08:41:07.240Z,36.82
2023-04-15T08:42:07.216Z,30.17
2023-04-15T08:43:07.195Z,30.26
2023-04-15T08:44:07.137Z,36.99
2023-04-15T08:45:07.109Z,40.92
2023-04-15T08:46:07.071Z,38.15
2023-04-15T08:47:07.070Z,39.95
2023-04-15T08:48:07.012Z,36.21
2023-04-15T08:49:06.993Z,39.20
2023-04-15T08:50:06.957Z,40.93
2023-04-15T08:51:06.923Z,46.83
2023-04-15T08:52:06.904Z,41.99
2023-04-15T08:53:06.875Z,39.50
2023-04-15T08:54:06.849Z,45.23
2023-04-15T08:55:06.826Z,45.79
2023-04-15T08:56:06.801Z,49.66
2023-04-15T08:57:06.773Z,50.27
2023-04-15T08:58:06.770Z,42.15
2023-04-15T08:59:06.746Z,43.80
2023-04-15T09:00:06.705Z,45.45
2023-04-15T09:01:06.713Z,40.17
2023-04-15T09:02:06.677Z,41.69
2023-04-15T09:03:06.698Z,38.17
2023-04-15T09:04:06.633Z,34.67
2023-04-15T09:05:06.638Z,30.95
2023-04-15T09:06:06.510Z,37.40
2023-04-15T09:07:06.494Z,47.66
2023-04-15T09:08:06.543Z,43.76
2023-04-15T09:09:06.473Z,38.43
2023-04-15T09:10:06.481Z,46.72
2023-04-15T09:11:06.461Z,50.27
2023-04-15T09:12:06.482Z,49.92
2023-04-15T09:13:06.488Z,48.39
2023-04-15T09:14:06.487Z,48.34
2023-04-15T09:15:06.512Z,49.73
2023-04-15T09:16:06.541Z,42.70
2023-04-15T09:17:06.522Z,44.48
2023-04-15T09:18:06.501Z,47.63
2023-04-15T09:19:06.511Z,44.91
2023-04-15T09:20:06.534Z,48.87
2023-04-15T09:21:06.533Z,49.00
2023-04-15T09:22:06.591Z,53.51
2023-04-15T09:23:06.547Z,50.13
2023-04-15T09:24:06.549Z,50.18
2023-04-15T09:25:06.565Z,48.50
2023-04-15T09:26:06.589Z,53.15
2023-04-15T09:27:06.603Z,52.14
2023-04-15T09:28:06.613Z,47.87
2023-04-15T09:29:06.626Z,47.28
2023-04-15T09:30:06.642Z,50.43
2023-04-15T09:31:06.740Z,44.59
2023-04-15T09:32:06.672Z,36.23
2023-04-15T09:33:06.762Z,32.19
2023-04-15T09:34:06.692Z,42.45
2023-04-15T09:35:06.708Z,40.88
2023-04-15T09:36:06.723Z,35.60
2023-04-15T09:37:07.545Z,31.34
2023-04-15T09:38:06.725Z,30.67
2023-04-15T09:39:06.738Z,27.23
2023-04-15T09:40:06.746Z,25.46
2023-04-15T09:41:06.731Z,26.81
2023-04-15T09:42:06.755Z,30.73
2023-04-15T09:43:06.755Z,31.79
2023-04-15T09:44:06.772Z,31.35
2023-04-15T09:45:06.767Z,33.63
2023-04-15T09:46:06.841Z,32.14
2023-04-15T09:47:06.807Z,38.21
2023-04-15T09:48:06.860Z,33.32
2023-04-15T09:49:06.815Z,25.90
2023-04-15T09:50:06.824Z,29.08
2023-04-15T09:51:06.828Z,25.50
2023-04-15T09:52:06.939Z,25.00
2023-04-15T09:53:06.821Z,34.66
2023-04-15T09:54:06.825Z,35.65
2023-04-15T09:55:06.816Z,35.11
2023-04-15T09:56:06.801Z,25.72
2023-04-15T09:57:06.787Z,23.73
2023-04-15T09:58:06.773Z,31.81
2023-04-15T09:59:06.747Z,25.00
2023-04-15T10:00:07.531Z,34.79
2023-04-15T10:01:06.755Z,37.79
2023-04-15T10:02:06.793Z,36.60
2023-04-15T10:03:06.866Z,32.16
2023-04-15T10:04:07.096Z,30.01
2023-04-15T10:05:06.728Z,33.21
2023-04-15T10:06:06.707Z,25.67
2023-04-15T10:07:06.691Z,28.53
2023-04-15T10:08:06.683Z,27.77
2023-04-15T10:09:06.677Z,30.26
2023-04-15T10:10:06.702Z,31.59
2023-04-15T10:11:06.693Z,25.70
2023-04-15T10:12:06.681Z,27.88
2023-04-15T10:13:06.671Z,27.75
2023-04-15T10:14:06.659Z,31.54
2023-04-15T10:15:06.661Z,31.68
2023-04-15T10:16:06.731Z,30.03
2023-04-15T10:17:06.646Z,23.68
2023-04-15T10:18:06.784Z,28.98
2023-04-15T10:19:06.661Z,33.07
2023-04-15T10:20:06.623Z,34.82
2023-04-15T10:21:06.624Z,41.33
2023-04-15T10:22:06.638Z,32.21
2023-04-15T10:23:09.487Z,28.33
2023-04-15T10:24:06.609Z,28.42
2023-04-15T10:25:06.566Z,14.88
2023-04-15T10:26:06.537Z,17.29
2023-04-15T10:27:06.509Z,10.62
2023-04-15T10:28:06.479Z,18.56
2023-04-15T10:29:06.440Z,26.45
2023-04-15T10:30:06.413Z,28.33
2023-04-15T10:31:06.417Z,33.61
2023-04-15T10:32:06.365Z,29.12
2023-04-15T10:33:07.169Z,31.47
2023-04-15T10:34:06.304Z,42.36
2023-04-15T10:35:06.303Z,52.63
2023-04-15T10:36:06.238Z,49.65
2023-04-15T10:37:06.198Z,43.27
2023-04-15T10:38:06.169Z,42.54
2023-04-15T10:39:06.153Z,49.47
2023-04-15T10:40:06.565Z,37.75
2023-04-15T10:41:06.078Z,33.74
2023-04-15T10:42:06.041Z,37.75
2023-04-15T10:43:06.004Z,46.72
2023-04-15T10:44:06.051Z,50.41
2023-04-15T10:45:05.932Z,46.60
2023-04-15T10:46:05.979Z,48.84
2023-04-15T10:47:05.864Z,52.03
2023-04-15T10:48:05.991Z,48.50
2023-04-15T10:49:05.819Z,41.69
2023-04-15T10:50:05.785Z,48.46
2023-04-15T10:51:05.775Z,53.53
2023-04-15T10:52:05.721Z,57.44
2023-04-15T10:53:05.796Z,53.20
2023-04-15T10:54:05.852Z,36.97
2023-04-15T10:55:05.664Z,34.24
2023-04-15T10:56:05.600Z,34.59
2023-04-15T10:57:05.556Z,40.85
2023-04-15T10:58:05.516Z,44.03
2023-04-15T10:59:05.488Z,46.79
2023-04-15T11:00:05.837Z,54.22
2023-04-15T11:01:05.416Z,53.15
2023-04-15T11:02:05.463Z,44.90
2023-04-15T11:03:05.511Z,55.14
2023-04-15T11:04:05.580Z,47.93
2023-04-15T11:05:05.265Z,42.30
2023-04-15T11:06:05.231Z,30.38
2023-04-15T11:07:05.211Z,36.44
2023-04-15T11:08:05.158Z,27.23
2023-04-15T11:09:05.162Z,29.64
2023-04-15T11:10:05.068Z,40.25
2023-04-15T11:11:05.046Z,43.08
2023-04-15T11:12:05.003Z,47.80
2023-04-15T11:13:04.956Z,49.47
2023-04-15T11:14:04.985Z,48.38
2023-04-15T11:15:04.875Z,45.10
2023-04-15T11:16:04.886Z,41.75
2023-04-15T11:17:04.796Z,48.18
2023-04-15T11:18:04.874Z,30.57
2023-04-15T11:19:04.726Z,24.51
2023-04-15T11:20:04.731Z,27.05
2023-04-15T11:21:04.699Z,27.63
2023-04-15T11:22:04.704Z,52.78
2023-04-15T11:23:14.349Z,48.83
2023-04-15T11:24:05.017Z,32.73
2023-04-15T11:25:04.632Z,35.91
2023-04-15T11:26:04.595Z,32.53
2023-04-15T11:27:04.556Z,42.49
2023-04-15T11:28:04.518Z,40.78
2023-04-15T11:29:04.766Z,31.98
2023-04-15T11:30:04.433Z,36.38
2023-04-15T11:31:04.404Z,48.64
2023-04-15T11:32:04.441Z,57.86
2023-04-15T11:33:04.396Z,51.50
2023-04-15T11:34:04.374Z,64.43
2023-04-15T11:35:04.239Z,59.30
2023-04-15T11:36:04.213Z,70.52
2023-04-15T11:37:04.152Z,84.13
2023-04-15T11:38:04.110Z,90.35
2023-04-15T11:39:04.614Z,73.14
2023-04-15T11:40:04.037Z,64.45
2023-04-15T11:41:03.996Z,67.50
2023-04-15T11:42:03.959Z,71.64
2023-04-15T11:43:03.928Z,89.43
2023-04-15T11:44:04.148Z,84.38
2023-04-15T11:45:03.849Z,72.95
2023-04-15T11:46:03.963Z,70.21
2023-04-15T11:47:03.888Z,74.76
2023-04-15T11:48:03.891Z,93.39
2023-04-15T11:49:03.908Z,108.95
2023-04-15T11:50:03.904Z,116.98
2023-04-15T11:51:03.888Z,104.21
2023-04-15T11:52:03.887Z,97.19
2023-04-15T11:53:05.614Z,107.70
2023-04-15T11:54:04.296Z,108.37
2023-04-15T11:55:03.822Z,110.93
2023-04-15T11:56:03.751Z,111.11
2023-04-15T11:57:03.709Z,107.20
2023-04-15T11:58:03.673Z,116.73
2023-04-15T11:59:03.633Z,128.20
2023-04-15T12:00:03.585Z,126.02
2023-04-15T12:01:03.541Z,122.94
2023-04-15T12:02:03.625Z,113.24
2023-04-15T12:03:04.048Z,105.95
2023-04-15T12:04:04.130Z,113.95
2023-04-15T12:05:03.526Z,127.29
2023-04-15T12:06:03.358Z,134.75
2023-04-15T12:07:03.285Z,117.15
2023-04-15T12:08:03.249Z,118.60
2023-04-15T12:09:03.255Z,124.81
2023-04-15T12:10:03.275Z,117.98
2023-04-15T12:11:03.335Z,110.68
2023-04-15T12:12:03.317Z,111.08
2023-04-15T12:13:03.335Z,118.87
2023-04-15T12:14:03.603Z,118.66
2023-04-15T12:15:03.393Z,122.81
2023-04-15T12:16:03.429Z,120.57
2023-04-15T12:17:03.441Z,121.35
2023-04-15T12:18:03.493Z,127.98
2023-04-15T12:19:03.406Z,129.55
2023-04-15T12:20:03.353Z,123.97
2023-04-15T12:21:03.310Z,124.53
2023-04-15T12:22:03.263Z,124.17
2023-04-15T12:23:03.237Z,118.29
2023-04-15T12:24:03.643Z,128.01
2023-04-15T12:25:03.174Z,145.39
2023-04-15T12:26:03.121Z,151.34
2023-04-15T12:27:03.098Z,142.41
2023-04-15T12:28:03.045Z,134.61
2023-04-15T12:29:03.019Z,131.41
2023-04-15T12:30:02.969Z,131.12
2023-04-15T12:31:02.998Z,114.44
2023-04-15T12:32:02.906Z,110.74
2023-04-15T12:33:02.936Z,102.57
2023-04-15T12:34:02.966Z,109.02
2023-04-15T12:35:02.782Z,123.80
2023-04-15T12:36:02.756Z,124.66
2023-04-15T12:37:02.722Z,126.54
2023-04-15T12:38:02.669Z,128.57
2023-04-15T12:39:02.633Z,126.19
2023-04-15T12:40:02.655Z,127.84
2023-04-15T12:41:02.686Z,130.28
2023-04-15T12:42:02.702Z,117.89
2023-04-15T12:43:02.747Z,112.59
2023-04-15T12:44:03.086Z,110.59
2023-04-15T12:45:02.782Z,123.95
2023-04-15T12:46:02.794Z,136.24
2023-04-15T12:47:02.976Z,132.14
2023-04-15T12:48:02.822Z,125.40
2023-04-15T12:49:02.834Z,118.04
2023-04-15T12:50:02.855Z,128.73
2023-04-15T12:51:03.925Z,132.60
2023-04-15T12:52:02.867Z,142.79